sensor_id;sensor_type;location;lat;lon;timestamp;temperature;humidity
37432;DHT22;23292;51.300;6.252;2022-10-31T00:01:23;14.50;99.90
37432;DHT22;23292;51.300;6.252;2022-10-31T00:03:51;14.50;99.90
37432;DHT22;23292;51.300;6.252;2022-10-31T00:06:17;14.50;99.90
37432;DHT22;23292;51.300;6.252;2022-10-31T00:08:58;14.50;99.90
37432;DHT22;23292;51.300;6.252;2022-10-31T00:11:25;14.50;99.90
37432;DHT22;23292;51.300;6.252;2022-10-31T00:13:52;14.50;99.90
37432;DHT22;23292;51.300;6.252;2022-10-31T00:16:24;14.50;99.90
37432;DHT22;23292;51.300;6.252;2022-10-31T00:18:54;14.50;99.90
37432;DHT22;23292;51.300;6.252;2022-10-31T00:21:22;14.50;99.90
37432;DHT22;23292;51.300;6.252;2022-10-31T00:23:49;14.50;99.90
37432;DHT22;23292;51.300;6.252;2022-10-31T00:26:16;14.40;99.90
37432;DHT22;23292;51.300;6.252;2022-10-31T00:28:43;14.40;99.90
37432;DHT22;23292;51.300;6.252;2022-10-31T00:31:11;14.30;99.90
37432;DHT22;23292;51.300;6.252;2022-10-31T00:33:39;14.30;99.90
37432;DHT22;23292;51.300;6.252;2022-10-31T00:36:07;14.20;99.90
37432;DHT22;23292;51.300;6.252;2022-10-31T00:38:39;14.10;99.90
37432;DHT22;23292;51.300;6.252;2022-10-31T00:41:06;14.00;99.90
37432;DHT22;23292;51.300;6.252;2022-10-31T00:43:33;13.90;99.90
37432;DHT22;23292;51.300;6.252;2022-10-31T00:46:00;13.80;99.90
37432;DHT22;23292;51.300;6.252;2022-10-31T00:48:27;13.80;99.90
37432;DHT22;23292;51.300;6.252;2022-10-31T00:50:53;13.70;99.90
37432;DHT22;23292;51.300;6.252;2022-10-31T00:53:22;13.60;99.90
37432;DHT22;23292;51.300;6.252;2022-10-31T00:55:48;13.60;99.90
37432;DHT22;23292;51.300;6.252;2022-10-31T00:58:15;13.50;99.90
37432;DHT22;23292;51.300;6.252;2022-10-31T01:00:43;13.40;99.90
37432;DHT22;23292;51.300;6.252;2022-10-31T01:03:14;13.30;99.90
37432;DHT22;23292;51.300;6.252;2022-10-31T01:05:41;13.30;99.90
37432;DHT22;23292;51.300;6.252;2022-10-31T01:08:08;13.20;99.90
37432;DHT22;23292;51.300;6.252;2022-10-31T01:10:35;13.10;99.90
37432;DHT22;23292;51.300;6.252;2022-10-31T01:13:01;13.10;99.90
37432;DHT22;23292;51.300;6.252;2022-10-31T01:15:28;13.10;99.90
37432;DHT22;23292;51.300;6.252;2022-10-31T01:17:55;13.00;99.90
37432;DHT22;23292;51.300;6.252;2022-10-31T01:20:22;13.00;99.90
37432;DHT22;23292;51.300;6.252;2022-10-31T01:22:48;13.00;99.90
37432;DHT22;23292;51.300;6.252;2022-10-31T01:25:15;12.90;99.90
37432;DHT22;23292;51.300;6.252;2022-10-31T01:27:42;12.90;99.90
37432;DHT22;23292;51.300;6.252;2022-10-31T01:30:10;12.80;99.90
37432;DHT22;23292;51.300;6.252;2022-10-31T01:32:37;12.90;99.90
37432;DHT22;23292;51.300;6.252;2022-10-31T01:35:04;12.90;99.90
37432;DHT22;23292;51.300;6.252;2022-10-31T01:37:31;12.90;99.90
37432;DHT22;23292;51.300;6.252;2022-10-31T01:39:58;12.80;99.90
37432;DHT22;23292;51.300;6.252;2022-10-31T01:42:26;12.80;99.90
37432;DHT22;23292;51.300;6.252;2022-10-31T01:44:55;12.80;99.90
37432;DHT22;23292;51.300;6.252;2022-10-31T01:49:59;12.70;99.90
37432;DHT22;23292;51.300;6.252;2022-10-31T01:52:29;12.70;99.90
37432;DHT22;23292;51.300;6.252;2022-10-31T01:55:03;12.70;99.90
37432;DHT22;23292;51.300;6.252;2022-10-31T01:57:32;12.70;99.90
37432;DHT22;23292;51.300;6.252;2022-10-31T02:00:03;12.70;99.90
37432;DHT22;23292;51.300;6.252;2022-10-31T02:02:38;12.70;99.90
37432;DHT22;23292;51.300;6.252;2022-10-31T02:05:09;12.70;99.90
37432;DHT22;23292;51.300;6.252;2022-10-31T02:07:41;12.70;99.90
37432;DHT22;23292;51.300;6.252;2022-10-31T02:10:09;12.70;99.90
37432;DHT22;23292;51.300;6.252;2022-10-31T02:12:37;12.60;99.90
37432;DHT22;23292;51.300;6.252;2022-10-31T02:15:05;12.60;99.90
37432;DHT22;23292;51.300;6.252;2022-10-31T02:17:33;12.50;99.90
37432;DHT22;23292;51.300;6.252;2022-10-31T02:20:16;12.40;99.90
37432;DHT22;23292;51.300;6.252;2022-10-31T02:26:09;12.40;99.90
37432;DHT22;23292;51.300;6.252;2022-10-31T02:34:21;12.30;99.90
37432;DHT22;23292;51.300;6.252;2022-10-31T02:37:21;12.40;99.90
37432;DHT22;23292;51.300;6.252;2022-10-31T02:40:40;12.40;99.90
37432;DHT22;23292;51.300;6.252;2022-10-31T02:43:26;12.50;99.90
37432;DHT22;23292;51.300;6.252;2022-10-31T02:45:59;12.50;99.90
37432;DHT22;23292;51.300;6.252;2022-10-31T02:48:33;12.50;99.90
37432;DHT22;23292;51.300;6.252;2022-10-31T02:51:04;12.50;99.90
37432;DHT22;23292;51.300;6.252;2022-10-31T02:53:36;12.50;99.90
37432;DHT22;23292;51.300;6.252;2022-10-31T02:56:11;12.40;99.90
37432;DHT22;23292;51.300;6.252;2022-10-31T02:58:48;12.50;99.90
37432;DHT22;23292;51.300;6.252;2022-10-31T03:04:14;12.40;99.90
37432;DHT22;23292;51.300;6.252;2022-10-31T03:09:25;12.30;99.90
37432;DHT22;23292;51.300;6.252;2022-10-31T03:12:07;12.20;99.90
37432;DHT22;23292;51.300;6.252;2022-10-31T03:14:45;12.10;99.90
37432;DHT22;23292;51.300;6.252;2022-10-31T03:17:25;12.10;99.90
37432;DHT22;23292;51.300;6.252;2022-10-31T03:19:55;12.00;99.90
37432;DHT22;23292;51.300;6.252;2022-10-31T03:22:27;11.90;99.90
37432;DHT22;23292;51.300;6.252;2022-10-31T03:24:58;11.90;99.90
37432;DHT22;23292;51.300;6.252;2022-10-31T03:27:27;11.90;99.90
37432;DHT22;23292;51.300;6.252;2022-10-31T03:29:57;11.90;99.90
37432;DHT22;23292;51.300;6.252;2022-10-31T03:32:32;11.80;99.90
37432;DHT22;23292;51.300;6.252;2022-10-31T03:35:04;11.80;99.90
37432;DHT22;23292;51.300;6.252;2022-10-31T03:37:33;11.80;99.90
37432;DHT22;23292;51.300;6.252;2022-10-31T03:40:02;11.70;99.90
37432;DHT22;23292;51.300;6.252;2022-10-31T03:42:35;11.70;99.90
37432;DHT22;23292;51.300;6.252;2022-10-31T03:45:06;11.60;99.90
37432;DHT22;23292;51.300;6.252;2022-10-31T03:47:36;11.70;99.90
37432;DHT22;23292;51.300;6.252;2022-10-31T03:50:06;11.70;99.90
37432;DHT22;23292;51.300;6.252;2022-10-31T03:52:54;11.70;99.90
37432;DHT22;23292;51.300;6.252;2022-10-31T03:56:16;11.70;99.90
37432;DHT22;23292;51.300;6.252;2022-10-31T03:58:29;11.70;99.90
37432;DHT22;23292;51.300;6.252;2022-10-31T04:01:00;12.00;99.90
37432;DHT22;23292;51.300;6.252;2022-10-31T04:03:32;12.10;99.90
37432;DHT22;23292;51.300;6.252;2022-10-31T04:06:05;12.00;99.90
37432;DHT22;23292;51.300;6.252;2022-10-31T04:08:40;12.00;99.90
37432;DHT22;23292;51.300;6.252;2022-10-31T04:11:13;12.00;99.90
37432;DHT22;23292;51.300;6.252;2022-10-31T04:13:43;11.90;99.90
37432;DHT22;23292;51.300;6.252;2022-10-31T04:16:17;11.90;99.90
37432;DHT22;23292;51.300;6.252;2022-10-31T04:18:44;11.90;99.90
37432;DHT22;23292;51.300;6.252;2022-10-31T04:21:11;11.80;99.90
37432;DHT22;23292;51.300;6.252;2022-10-31T04:23:38;11.80;99.90
37432;DHT22;23292;51.300;6.252;2022-10-31T04:26:16;11.80;99.90
37432;DHT22;23292;51.300;6.252;2022-10-31T04:28:43;11.80;99.90
37432;DHT22;23292;51.300;6.252;2022-10-31T04:31:12;11.80;99.90
37432;DHT22;23292;51.300;6.252;2022-10-31T04:33:39;11.80;99.90
37432;DHT22;23292;51.300;6.252;2022-10-31T04:36:06;11.80;99.90
37432;DHT22;23292;51.300;6.252;2022-10-31T04:38:33;11.70;99.90
37432;DHT22;23292;51.300;6.252;2022-10-31T04:41:04;11.70;99.90
37432;DHT22;23292;51.300;6.252;2022-10-31T04:43:45;11.70;99.90
37432;DHT22;23292;51.300;6.252;2022-10-31T04:46:13;11.60;99.90
37432;DHT22;23292;51.300;6.252;2022-10-31T04:48:40;11.60;99.90
37432;DHT22;23292;51.300;6.252;2022-10-31T04:51:07;11.60;99.90
37432;DHT22;23292;51.300;6.252;2022-10-31T04:53:33;11.50;99.90
37432;DHT22;23292;51.300;6.252;2022-10-31T04:56:23;11.50;99.90
37432;DHT22;23292;51.300;6.252;2022-10-31T04:58:56;11.40;99.90
37432;DHT22;23292;51.300;6.252;2022-10-31T05:01:24;11.40;99.90
37432;DHT22;23292;51.300;6.252;2022-10-31T05:03:51;11.30;99.90
37432;DHT22;23292;51.300;6.252;2022-10-31T05:06:18;11.30;99.90
37432;DHT22;23292;51.300;6.252;2022-10-31T05:08:45;11.30;99.90
37432;DHT22;23292;51.300;6.252;2022-10-31T05:11:12;11.30;99.90
37432;DHT22;23292;51.300;6.252;2022-10-31T05:13:39;11.40;99.90
37432;DHT22;23292;51.300;6.252;2022-10-31T05:16:12;11.40;99.90
37432;DHT22;23292;51.300;6.252;2022-10-31T05:18:57;11.40;99.90
37432;DHT22;23292;51.300;6.252;2022-10-31T05:22:02;11.30;99.90
37432;DHT22;23292;51.300;6.252;2022-10-31T05:24:32;11.20;99.90
37432;DHT22;23292;51.300;6.252;2022-10-31T05:26:59;11.20;99.90
37432;DHT22;23292;51.300;6.252;2022-10-31T05:29:26;11.30;99.90
37432;DHT22;23292;51.300;6.252;2022-10-31T05:31:53;11.30;99.90
37432;DHT22;23292;51.300;6.252;2022-10-31T05:34:43;11.20;99.90
37432;DHT22;23292;51.300;6.252;2022-10-31T05:37:35;11.20;99.90
37432;DHT22;23292;51.300;6.252;2022-10-31T05:40:03;11.10;99.90
37432;DHT22;23292;51.300;6.252;2022-10-31T05:42:34;11.10;99.90
37432;DHT22;23292;51.300;6.252;2022-10-31T05:45:01;11.20;99.90
37432;DHT22;23292;51.300;6.252;2022-10-31T05:47:52;11.30;99.90
37432;DHT22;23292;51.300;6.252;2022-10-31T05:50:38;11.50;99.90
37432;DHT22;23292;51.300;6.252;2022-10-31T05:53:08;11.60;99.90
37432;DHT22;23292;51.300;6.252;2022-10-31T05:55:37;11.60;99.90
37432;DHT22;23292;51.300;6.252;2022-10-31T05:58:08;11.50;99.90
37432;DHT22;23292;51.300;6.252;2022-10-31T06:00:36;11.50;99.90
37432;DHT22;23292;51.300;6.252;2022-10-31T06:03:08;11.50;99.90
37432;DHT22;23292;51.300;6.252;2022-10-31T06:05:45;11.50;99.90
37432;DHT22;23292;51.300;6.252;2022-10-31T06:08:19;11.50;99.90
37432;DHT22;23292;51.300;6.252;2022-10-31T06:10:47;11.40;99.90
37432;DHT22;23292;51.300;6.252;2022-10-31T06:13:19;11.40;99.90
37432;DHT22;23292;51.300;6.252;2022-10-31T06:15:56;11.30;99.90
37432;DHT22;23292;51.300;6.252;2022-10-31T06:18:27;11.50;99.90
37432;DHT22;23292;51.300;6.252;2022-10-31T06:20:54;11.40;99.90
37432;DHT22;23292;51.300;6.252;2022-10-31T06:23:22;11.30;99.90
37432;DHT22;23292;51.300;6.252;2022-10-31T06:25:54;11.20;99.90
37432;DHT22;23292;51.300;6.252;2022-10-31T06:28:21;11.20;99.90
37432;DHT22;23292;51.300;6.252;2022-10-31T06:30:55;11.20;99.90
37432;DHT22;23292;51.300;6.252;2022-10-31T06:33:22;11.20;99.90
37432;DHT22;23292;51.300;6.252;2022-10-31T06:35:55;11.10;99.90
37432;DHT22;23292;51.300;6.252;2022-10-31T06:38:22;11.00;99.90
37432;DHT22;23292;51.300;6.252;2022-10-31T06:40:50;11.00;99.90
37432;DHT22;23292;51.300;6.252;2022-10-31T06:43:21;11.00;99.90
37432;DHT22;23292;51.300;6.252;2022-10-31T06:45:50;11.00;99.90
37432;DHT22;23292;51.300;6.252;2022-10-31T06:48:24;11.00;99.90
37432;DHT22;23292;51.300;6.252;2022-10-31T06:51:11;11.00;99.90
37432;DHT22;23292;51.300;6.252;2022-10-31T06:53:38;11.00;99.90
37432;DHT22;23292;51.300;6.252;2022-10-31T06:56:07;11.10;99.90
37432;DHT22;23292;51.300;6.252;2022-10-31T06:58:39;11.20;99.90
37432;DHT22;23292;51.300;6.252;2022-10-31T07:01:07;11.20;99.90
37432;DHT22;23292;51.300;6.252;2022-10-31T07:03:34;11.20;99.90
37432;DHT22;23292;51.300;6.252;2022-10-31T07:06:01;11.30;99.90
37432;DHT22;23292;51.300;6.252;2022-10-31T07:08:29;11.40;99.90
37432;DHT22;23292;51.300;6.252;2022-10-31T07:10:57;11.60;99.90
37432;DHT22;23292;51.300;6.252;2022-10-31T07:13:26;11.60;99.90
37432;DHT22;23292;51.300;6.252;2022-10-31T07:16:03;11.70;99.90
37432;DHT22;23292;51.300;6.252;2022-10-31T07:18:33;11.70;99.90
37432;DHT22;23292;51.300;6.252;2022-10-31T07:21:01;11.80;99.90
37432;DHT22;23292;51.300;6.252;2022-10-31T07:23:28;11.80;99.90
37432;DHT22;23292;51.300;6.252;2022-10-31T07:26:21;11.80;99.90
37432;DHT22;23292;51.300;6.252;2022-10-31T07:28:48;11.80;99.90
37432;DHT22;23292;51.300;6.252;2022-10-31T07:31:18;11.90;99.90
37432;DHT22;23292;51.300;6.252;2022-10-31T07:33:44;12.00;99.90
37432;DHT22;23292;51.300;6.252;2022-10-31T07:36:27;12.00;99.90
37432;DHT22;23292;51.300;6.252;2022-10-31T07:38:58;12.10;99.90
37432;DHT22;23292;51.300;6.252;2022-10-31T07:41:25;12.20;99.90
37432;DHT22;23292;51.300;6.252;2022-10-31T07:43:53;12.20;99.90
37432;DHT22;23292;51.300;6.252;2022-10-31T07:47:02;12.30;99.90
37432;DHT22;23292;51.300;6.252;2022-10-31T07:49:48;12.30;99.90
37432;DHT22;23292;51.300;6.252;2022-10-31T07:52:38;12.30;99.90
37432;DHT22;23292;51.300;6.252;2022-10-31T07:55:34;12.30;99.90
37432;DHT22;23292;51.300;6.252;2022-10-31T07:58:09;12.30;99.90
37432;DHT22;23292;51.300;6.252;2022-10-31T08:00:40;12.30;99.90
37432;DHT22;23292;51.300;6.252;2022-10-31T08:03:13;12.40;99.90
37432;DHT22;23292;51.300;6.252;2022-10-31T08:05:58;12.40;99.90
37432;DHT22;23292;51.300;6.252;2022-10-31T08:08:44;12.40;99.90
37432;DHT22;23292;51.300;6.252;2022-10-31T08:11:10;12.40;99.90
37432;DHT22;23292;51.300;6.252;2022-10-31T08:13:38;12.40;99.90
37432;DHT22;23292;51.300;6.252;2022-10-31T08:16:04;12.40;99.90
37432;DHT22;23292;51.300;6.252;2022-10-31T08:18:39;12.50;99.90
37432;DHT22;23292;51.300;6.252;2022-10-31T08:21:11;12.50;99.90
37432;DHT22;23292;51.300;6.252;2022-10-31T08:23:37;12.60;99.90
37432;DHT22;23292;51.300;6.252;2022-10-31T08:26:04;12.70;99.90
37432;DHT22;23292;51.300;6.252;2022-10-31T08:28:32;12.80;99.90
37432;DHT22;23292;51.300;6.252;2022-10-31T08:30:59;12.90;99.90
37432;DHT22;23292;51.300;6.252;2022-10-31T08:33:38;13.30;99.90
37432;DHT22;23292;51.300;6.252;2022-10-31T08:36:08;13.60;99.90
37432;DHT22;23292;51.300;6.252;2022-10-31T08:39:02;13.80;99.90
37432;DHT22;23292;51.300;6.252;2022-10-31T08:41:30;14.20;99.90
37432;DHT22;23292;51.300;6.252;2022-10-31T08:43:58;14.30;99.90
37432;DHT22;23292;51.300;6.252;2022-10-31T08:46:25;14.40;99.90
37432;DHT22;23292;51.300;6.252;2022-10-31T08:48:52;14.40;99.90
37432;DHT22;23292;51.300;6.252;2022-10-31T08:51:19;14.60;99.90
37432;DHT22;23292;51.300;6.252;2022-10-31T08:53:50;14.50;99.90
37432;DHT22;23292;51.300;6.252;2022-10-31T08:56:40;14.60;99.90
37432;DHT22;23292;51.300;6.252;2022-10-31T08:59:27;14.60;99.90
37432;DHT22;23292;51.300;6.252;2022-10-31T09:02:30;14.70;99.90
37432;DHT22;23292;51.300;6.252;2022-10-31T09:04:59;14.70;99.90
37432;DHT22;23292;51.300;6.252;2022-10-31T09:07:26;14.50;99.90
37432;DHT22;23292;51.300;6.252;2022-10-31T09:09:53;14.60;99.90
37432;DHT22;23292;51.300;6.252;2022-10-31T09:12:22;14.60;99.90
37432;DHT22;23292;51.300;6.252;2022-10-31T09:14:56;14.60;99.90
37432;DHT22;23292;51.300;6.252;2022-10-31T09:17:46;14.60;99.90
37432;DHT22;23292;51.300;6.252;2022-10-31T09:20:28;14.70;99.90
37432;DHT22;23292;51.300;6.252;2022-10-31T09:23:00;14.70;99.90
37432;DHT22;23292;51.300;6.252;2022-10-31T09:25:29;14.70;99.90
37432;DHT22;23292;51.300;6.252;2022-10-31T09:28:25;14.70;99.90
37432;DHT22;23292;51.300;6.252;2022-10-31T09:30:54;14.60;99.90
37432;DHT22;23292;51.300;6.252;2022-10-31T09:33:40;14.60;99.90
37432;DHT22;23292;51.300;6.252;2022-10-31T09:36:28;14.70;99.90
37432;DHT22;23292;51.300;6.252;2022-10-31T09:38:55;14.80;99.90
37432;DHT22;23292;51.300;6.252;2022-10-31T09:41:37;14.80;99.90
37432;DHT22;23292;51.300;6.252;2022-10-31T09:49:44;15.10;99.90
37432;DHT22;23292;51.300;6.252;2022-10-31T09:52:35;15.10;99.90
37432;DHT22;23292;51.300;6.252;2022-10-31T09:55:16;15.20;99.90
37432;DHT22;23292;51.300;6.252;2022-10-31T09:57:46;15.30;99.90
37432;DHT22;23292;51.300;6.252;2022-10-31T10:00:19;15.40;99.90
37432;DHT22;23292;51.300;6.252;2022-10-31T10:05:17;15.50;99.90
37432;DHT22;23292;51.300;6.252;2022-10-31T10:07:54;15.60;99.90
37432;DHT22;23292;51.300;6.252;2022-10-31T10:11:02;15.70;99.90
37432;DHT22;23292;51.300;6.252;2022-10-31T10:25:04;15.70;99.90
37432;DHT22;23292;51.300;6.252;2022-10-31T10:30:22;15.80;99.90
37432;DHT22;23292;51.300;6.252;2022-10-31T10:32:59;15.80;99.90
37432;DHT22;23292;51.300;6.252;2022-10-31T10:35:47;15.80;99.90
37432;DHT22;23292;51.300;6.252;2022-10-31T10:41:07;16.00;99.90
37432;DHT22;23292;51.300;6.252;2022-10-31T10:43:37;16.00;99.90
37432;DHT22;23292;51.300;6.252;2022-10-31T10:51:52;15.90;99.90
37432;DHT22;23292;51.300;6.252;2022-10-31T10:58:04;16.20;99.90
37432;DHT22;23292;51.300;6.252;2022-10-31T11:00:43;16.30;99.90
37432;DHT22;23292;51.300;6.252;2022-10-31T11:03:14;16.30;99.90
37432;DHT22;23292;51.300;6.252;2022-10-31T11:11:02;16.40;99.90
37432;DHT22;23292;51.300;6.252;2022-10-31T11:13:30;16.60;99.90
37432;DHT22;23292;51.300;6.252;2022-10-31T11:15:59;16.50;99.90
37432;DHT22;23292;51.300;6.252;2022-10-31T11:18:29;16.50;99.90
37432;DHT22;23292;51.300;6.252;2022-10-31T11:20:58;16.60;99.90
37432;DHT22;23292;51.300;6.252;2022-10-31T11:23:27;16.70;99.90
37432;DHT22;23292;51.300;6.252;2022-10-31T11:26:04;16.80;99.90
37432;DHT22;23292;51.300;6.252;2022-10-31T11:28:32;16.90;99.90
37432;DHT22;23292;51.300;6.252;2022-10-31T11:31:07;17.00;99.90
37432;DHT22;23292;51.300;6.252;2022-10-31T11:33:37;17.20;99.90
37432;DHT22;23292;51.300;6.252;2022-10-31T11:36:26;17.20;99.90
37432;DHT22;23292;51.300;6.252;2022-10-31T11:38:54;17.10;99.90
37432;DHT22;23292;51.300;6.252;2022-10-31T11:41:30;17.10;99.90
37432;DHT22;23292;51.300;6.252;2022-10-31T11:44:10;17.20;99.90
37432;DHT22;23292;51.300;6.252;2022-10-31T11:46:58;17.20;99.90
37432;DHT22;23292;51.300;6.252;2022-10-31T11:49:36;17.20;99.90
37432;DHT22;23292;51.300;6.252;2022-10-31T11:52:14;17.30;99.90
37432;DHT22;23292;51.300;6.252;2022-10-31T11:54:47;17.30;99.90
37432;DHT22;23292;51.300;6.252;2022-10-31T11:57:29;17.40;99.90
37432;DHT22;23292;51.300;6.252;2022-10-31T11:59:59;17.60;99.90
37432;DHT22;23292;51.300;6.252;2022-10-31T12:02:27;17.50;99.90
37432;DHT22;23292;51.300;6.252;2022-10-31T12:05:21;17.40;99.90
37432;DHT22;23292;51.300;6.252;2022-10-31T12:07:49;17.60;99.90
37432;DHT22;23292;51.300;6.252;2022-10-31T12:10:21;17.70;99.90
37432;DHT22;23292;51.300;6.252;2022-10-31T12:16:19;17.80;99.90
37432;DHT22;23292;51.300;6.252;2022-10-31T12:21:19;17.90;99.90
37432;DHT22;23292;51.300;6.252;2022-10-31T12:24:07;17.80;99.90
37432;DHT22;23292;51.300;6.252;2022-10-31T12:27:10;17.90;99.90
37432;DHT22;23292;51.300;6.252;2022-10-31T12:38:38;18.00;99.90
37432;DHT22;23292;51.300;6.252;2022-10-31T12:43:49;18.00;99.90
37432;DHT22;23292;51.300;6.252;2022-10-31T12:49:11;18.00;99.90
37432;DHT22;23292;51.300;6.252;2022-10-31T12:54:36;18.20;99.90
37432;DHT22;23292;51.300;6.252;2022-10-31T12:57:32;18.20;99.90
37432;DHT22;23292;51.300;6.252;2022-10-31T13:02:41;18.00;99.90
37432;DHT22;23292;51.300;6.252;2022-10-31T13:05:27;18.00;99.90
37432;DHT22;23292;51.300;6.252;2022-10-31T13:08:00;17.90;99.90
37432;DHT22;23292;51.300;6.252;2022-10-31T13:10:30;18.00;99.90
37432;DHT22;23292;51.300;6.252;2022-10-31T13:13:47;17.90;99.90
37432;DHT22;23292;51.300;6.252;2022-10-31T13:15:58;18.00;99.90
37432;DHT22;23292;51.300;6.252;2022-10-31T13:18:33;18.00;99.90
37432;DHT22;23292;51.300;6.252;2022-10-31T13:21:03;18.10;99.90
37432;DHT22;23292;51.300;6.252;2022-10-31T13:23:34;18.00;99.90
37432;DHT22;23292;51.300;6.252;2022-10-31T13:26:23;18.10;99.90
37432;DHT22;23292;51.300;6.252;2022-10-31T13:29:00;18.10;99.90
37432;DHT22;23292;51.300;6.252;2022-10-31T13:31:29;18.20;99.90
37432;DHT22;23292;51.300;6.252;2022-10-31T13:34:00;18.20;99.90
37432;DHT22;23292;51.300;6.252;2022-10-31T13:36:55;18.30;99.90
37432;DHT22;23292;51.300;6.252;2022-10-31T13:45:29;18.50;99.90
37432;DHT22;23292;51.300;6.252;2022-10-31T13:50:31;18.50;99.90
37432;DHT22;23292;51.300;6.252;2022-10-31T13:55:45;18.60;99.90
37432;DHT22;23292;51.300;6.252;2022-10-31T13:58:27;18.60;99.90
37432;DHT22;23292;51.300;6.252;2022-10-31T14:01:16;18.60;99.90
37432;DHT22;23292;51.300;6.252;2022-10-31T14:04:18;18.50;99.90
37432;DHT22;23292;51.300;6.252;2022-10-31T14:07:06;18.50;99.90
37432;DHT22;23292;51.300;6.252;2022-10-31T14:12:40;18.50;99.90
37432;DHT22;23292;51.300;6.252;2022-10-31T14:15:18;18.50;99.90
37432;DHT22;23292;51.300;6.252;2022-10-31T14:17:50;18.30;99.90
37432;DHT22;23292;51.300;6.252;2022-10-31T14:22:44;18.40;99.90
37432;DHT22;23292;51.300;6.252;2022-10-31T14:25:35;18.40;99.90
37432;DHT22;23292;51.300;6.252;2022-10-31T14:28:32;18.50;99.90
37432;DHT22;23292;51.300;6.252;2022-10-31T14:31:00;18.60;99.90
37432;DHT22;23292;51.300;6.252;2022-10-31T14:33:28;18.60;99.90
37432;DHT22;23292;51.300;6.252;2022-10-31T14:39:21;18.80;99.90
37432;DHT22;23292;51.300;6.252;2022-10-31T14:50:29;18.70;99.90
37432;DHT22;23292;51.300;6.252;2022-10-31T14:53:02;18.70;99.90
37432;DHT22;23292;51.300;6.252;2022-10-31T14:55:30;18.60;99.90
37432;DHT22;23292;51.300;6.252;2022-10-31T14:58:01;18.50;99.90
37432;DHT22;23292;51.300;6.252;2022-10-31T15:00:31;18.30;99.90
37432;DHT22;23292;51.300;6.252;2022-10-31T15:03:06;18.30;99.90
37432;DHT22;23292;51.300;6.252;2022-10-31T15:05:42;18.20;99.90
37432;DHT22;23292;51.300;6.252;2022-10-31T15:08:29;18.10;99.90
37432;DHT22;23292;51.300;6.252;2022-10-31T15:10:56;18.00;99.90
37432;DHT22;23292;51.300;6.252;2022-10-31T15:13:22;18.00;99.90
37432;DHT22;23292;51.300;6.252;2022-10-31T15:15:54;18.00;99.90
37432;DHT22;23292;51.300;6.252;2022-10-31T15:18:25;17.90;99.90
37432;DHT22;23292;51.300;6.252;2022-10-31T15:20:54;17.80;99.90
37432;DHT22;23292;51.300;6.252;2022-10-31T15:23:27;17.70;99.90
37432;DHT22;23292;51.300;6.252;2022-10-31T15:26:01;17.70;99.90
37432;DHT22;23292;51.300;6.252;2022-10-31T15:28:29;17.50;99.90
37432;DHT22;23292;51.300;6.252;2022-10-31T15:30:59;17.50;99.90
37432;DHT22;23292;51.300;6.252;2022-10-31T15:33:28;17.50;99.90
37432;DHT22;23292;51.300;6.252;2022-10-31T15:36:04;17.50;99.90
37432;DHT22;23292;51.300;6.252;2022-10-31T15:38:31;17.60;99.90
37432;DHT22;23292;51.300;6.252;2022-10-31T15:41:18;17.60;99.90
37432;DHT22;23292;51.300;6.252;2022-10-31T15:43:46;17.60;99.90
37432;DHT22;23292;51.300;6.252;2022-10-31T15:46:14;17.60;99.90
37432;DHT22;23292;51.300;6.252;2022-10-31T15:48:45;17.50;99.90
37432;DHT22;23292;51.300;6.252;2022-10-31T15:51:12;17.50;99.90
37432;DHT22;23292;51.300;6.252;2022-10-31T15:53:46;17.50;99.90
37432;DHT22;23292;51.300;6.252;2022-10-31T15:56:28;17.50;99.90
37432;DHT22;23292;51.300;6.252;2022-10-31T15:58:58;17.40;99.90
37432;DHT22;23292;51.300;6.252;2022-10-31T16:01:28;17.30;99.90
37432;DHT22;23292;51.300;6.252;2022-10-31T16:06:37;17.20;99.90
37432;DHT22;23292;51.300;6.252;2022-10-31T16:09:20;17.20;99.90
37432;DHT22;23292;51.300;6.252;2022-10-31T16:11:47;17.10;99.90
37432;DHT22;23292;51.300;6.252;2022-10-31T16:14:19;17.10;99.90
37432;DHT22;23292;51.300;6.252;2022-10-31T16:16:54;16.90;99.90
37432;DHT22;23292;51.300;6.252;2022-10-31T16:19:27;16.90;99.90
37432;DHT22;23292;51.300;6.252;2022-10-31T16:22:03;16.90;99.90
37432;DHT22;23292;51.300;6.252;2022-10-31T16:24:37;16.90;99.90
37432;DHT22;23292;51.300;6.252;2022-10-31T16:27:17;16.80;99.90
37432;DHT22;23292;51.300;6.252;2022-10-31T16:29:45;16.80;99.90
37432;DHT22;23292;51.300;6.252;2022-10-31T16:32:32;16.70;99.90
37432;DHT22;23292;51.300;6.252;2022-10-31T16:37:41;16.70;99.90
37432;DHT22;23292;51.300;6.252;2022-10-31T16:40:11;16.80;99.90
37432;DHT22;23292;51.300;6.252;2022-10-31T16:42:37;16.70;99.90
37432;DHT22;23292;51.300;6.252;2022-10-31T16:45:13;16.60;99.90
37432;DHT22;23292;51.300;6.252;2022-10-31T16:47:41;16.60;99.90
37432;DHT22;23292;51.300;6.252;2022-10-31T16:50:22;16.60;99.90
37432;DHT22;23292;51.300;6.252;2022-10-31T16:52:50;16.50;99.90
37432;DHT22;23292;51.300;6.252;2022-10-31T16:55:57;16.50;99.90
37432;DHT22;23292;51.300;6.252;2022-10-31T16:58:27;16.50;99.90
37432;DHT22;23292;51.300;6.252;2022-10-31T17:00:56;16.60;99.90
37432;DHT22;23292;51.300;6.252;2022-10-31T17:03:24;16.60;99.90
37432;DHT22;23292;51.300;6.252;2022-10-31T17:05:50;16.60;99.90
37432;DHT22;23292;51.300;6.252;2022-10-31T17:08:17;16.50;99.90
37432;DHT22;23292;51.300;6.252;2022-10-31T17:10:45;16.50;99.90
37432;DHT22;23292;51.300;6.252;2022-10-31T17:13:16;16.50;99.90
37432;DHT22;23292;51.300;6.252;2022-10-31T17:15:47;16.50;99.90
37432;DHT22;23292;51.300;6.252;2022-10-31T17:18:16;16.50;99.90
37432;DHT22;23292;51.300;6.252;2022-10-31T17:20:48;16.40;99.90
37432;DHT22;23292;51.300;6.252;2022-10-31T17:23:15;16.40;99.90
37432;DHT22;23292;51.300;6.252;2022-10-31T17:25:42;16.40;99.90
37432;DHT22;23292;51.300;6.252;2022-10-31T17:28:12;16.40;99.90
37432;DHT22;23292;51.300;6.252;2022-10-31T17:30:41;16.40;99.90
37432;DHT22;23292;51.300;6.252;2022-10-31T17:33:15;16.40;99.90
37432;DHT22;23292;51.300;6.252;2022-10-31T17:35:42;16.40;99.90
37432;DHT22;23292;51.300;6.252;2022-10-31T17:38:10;16.40;99.90
37432;DHT22;23292;51.300;6.252;2022-10-31T17:40:39;16.30;99.90
37432;DHT22;23292;51.300;6.252;2022-10-31T17:43:08;16.40;99.90
37432;DHT22;23292;51.300;6.252;2022-10-31T17:45:38;16.30;99.90
37432;DHT22;23292;51.300;6.252;2022-10-31T17:48:06;16.40;99.90
37432;DHT22;23292;51.300;6.252;2022-10-31T17:50:32;16.40;99.90
37432;DHT22;23292;51.300;6.252;2022-10-31T17:52:59;16.30;99.90
37432;DHT22;23292;51.300;6.252;2022-10-31T17:55:27;16.20;99.90
37432;DHT22;23292;51.300;6.252;2022-10-31T17:58:03;16.20;99.90
37432;DHT22;23292;51.300;6.252;2022-10-31T18:00:29;16.20;99.90
37432;DHT22;23292;51.300;6.252;2022-10-31T18:02:56;16.00;99.90
37432;DHT22;23292;51.300;6.252;2022-10-31T18:05:23;16.10;99.90